Time;durP1;ratioP1;P1;durP2;ratioP2;P2;SDS_P1;SDS_P2;PMS_P1;PMS_P2;Temp;Humidity;BMP_temperature;BMP_pressure;BME280_temperature;BME280_humidity;BME280_pressure;Samples;Min_cycle;Max_cycle;Signal;HPM_P1;HPM_P2
2023/09/12 00:00:36;;;;;;;33.40;30.10;;;;;;;17.12;100.00;98693.17;109585;1251;59271;-68
2023/09/12 00:03:23;;;;;;;35.60;31.90;;;;;;;17.13;100.00;98694.36;109617;1251;60874;-68
2023/09/12 00:05:54;;;;;;;34.90;31.30;;;;;;;17.14;100.00;98695.01;109620;1251;64083;-68
2023/09/12 00:08:20;;;;;;;35.90;32.30;;;;;;;17.13;100.00;98693.79;109528;1251;58966;-68
2023/09/12 00:11:01;;;;;;;33.80;30.40;;;;;;;17.13;100.00;98693.82;109581;1251;59013;-68
2023/09/12 00:13:28;;;;;;;34.20;30.90;;;;;;;17.11;100.00;98689.27;109566;1250;64497;-68
2023/09/12 00:15:55;;;;;;;33.90;30.60;;;;;;;17.10;100.00;98686.66;109267;1251;59397;-68
2023/09/12 00:18:22;;;;;;;30.80;27.70;;;;;;;17.10;100.00;98689.56;109629;1251;62777;-68
2023/09/12 00:20:50;;;;;;;32.00;28.90;;;;;;;17.10;100.00;98689.05;109531;1251;58937;-68
2023/09/12 00:23:18;;;;;;;33.50;30.10;;;;;;;17.09;100.00;98685.20;109608;1250;59051;-68
2023/09/12 00:25:45;;;;;;;32.20;29.00;;;;;;;17.09;100.00;98685.73;109592;1251;64780;-68
2023/09/12 00:28:11;;;;;;;32.40;29.30;;;;;;;17.08;100.00;98685.82;109577;1251;60151;-68
2023/09/12 00:30:38;;;;;;;32.40;29.20;;;;;;;17.06;100.00;98687.98;109532;1251;63777;-68
2023/09/12 00:33:04;;;;;;;32.40;29.20;;;;;;;17.05;100.00;98684.18;109570;1250;58955;-68
2023/09/12 00:35:31;;;;;;;33.20;29.90;;;;;;;17.02;100.00;98684.95;109296;1251;59075;-68
2023/09/12 00:37:57;;;;;;;30.90;27.90;;;;;;;17.00;100.00;98682.67;109582;1250;59587;-68
2023/09/12 00:40:24;;;;;;;31.80;28.70;;;;;;;16.99;100.00;98682.83;109615;1251;60159;-69
2023/09/12 00:42:50;;;;;;;32.70;29.70;;;;;;;16.97;100.00;98685.33;109568;1250;62884;-69
2023/09/12 00:45:17;;;;;;;32.00;29.00;;;;;;;16.95;100.00;98685.48;109577;1251;58990;-69
2023/09/12 00:47:44;;;;;;;33.80;30.50;;;;;;;16.95;100.00;98684.06;109358;1251;59065;-69
2023/09/12 00:50:11;;;;;;;33.00;29.30;;;;;;;16.94;100.00;98682.95;109642;1251;65915;-69
2023/09/12 00:52:39;;;;;;;34.10;30.70;;;;;;;16.92;100.00;98682.39;109390;1251;58988;-68
2023/09/12 00:55:06;;;;;;;35.30;31.60;;;;;;;16.90;100.00;98681.70;109629;1251;64114;-68
2023/09/12 00:57:34;;;;;;;42.20;38.10;;;;;;;16.88;100.00;98680.23;109537;1251;58986;-69
2023/09/12 01:00:10;;;;;;;45.00;40.10;;;;;;;16.87;100.00;98681.60;109625;1254;59746;-68
2023/09/12 01:02:38;;;;;;;41.00;37.30;;;;;;;16.86;100.00;98681.20;109539;1250;64885;-69
2023/09/12 01:05:07;;;;;;;40.80;36.50;;;;;;;16.85;100.00;98681.82;109642;1251;59004;-68
2023/09/12 01:07:35;;;;;;;39.30;35.30;;;;;;;16.83;100.00;98680.37;109593;1251;64504;-68
2023/09/12 01:10:02;;;;;;;40.10;36.10;;;;;;;16.82;100.00;98677.29;109550;1251;58941;-68
2023/09/12 01:12:29;;;;;;;40.70;36.70;;;;;;;16.80;100.00;98680.33;109599;1251;59037;-68
2023/09/12 01:14:56;;;;;;;44.20;39.90;;;;;;;16.79;100.00;98684.20;109570;1251;64792;-68
2023/09/12 01:17:24;;;;;;;41.90;37.70;;;;;;;16.78;100.00;98682.33;109578;1254;59042;-68
2023/09/12 01:19:51;;;;;;;38.30;34.70;;;;;;;16.77;100.00;98679.89;109627;1251;64068;-68
2023/09/12 01:22:38;;;;;;;38.40;34.80;;;;;;;16.77;100.00;98675.98;109561;1251;58904;-68
2023/09/12 01:25:08;;;;;;;37.30;33.70;;;;;;;16.75;100.00;98675.77;109547;1251;59631;-68
2023/09/12 01:27:38;;;;;;;37.20;33.70;;;;;;;16.73;100.00;98675.94;109583;1251;65708;-68
2023/09/12 01:30:05;;;;;;;;;;;;;;;16.72;100.00;98682.58;109407;1251;60286;-68
2023/09/12 01:32:34;;;;;;;40.00;36.10;;;;;;;16.67;100.00;98684.92;109577;1251;62803;-68
2023/09/12 01:35:03;;;;;;;40.10;36.20;;;;;;;16.63;100.00;98682.28;109570;1251;58931;-68
2023/09/12 01:37:31;;;;;;;42.70;38.30;;;;;;;16.59;100.00;98679.98;109602;1251;58992;-68
2023/09/12 01:39:58;;;;;;;38.60;34.80;;;;;;;16.56;100.00;98680.13;109560;1250;64804;-68
2023/09/12 01:42:30;;;;;;;42.60;38.60;;;;;;;16.54;100.00;98681.39;109586;1252;60139;-68
2023/09/12 01:44:57;;;;;;;42.70;38.50;;;;;;;16.54;100.00;98678.92;109584;1251;64044;-68
2023/09/12 01:47:25;;;;;;;39.20;35.60;;;;;;;16.54;100.00;98684.28;109582;1251;58969;-68
2023/09/12 01:49:55;;;;;;;39.30;35.60;;;;;;;16.54;100.00;98689.31;109599;1250;59019;-68
2023/09/12 01:52:23;;;;;;;35.90;32.50;;;;;;;16.51;100.00;98687.60;109560;1250;64861;-68
2023/09/12 01:54:50;;;;;;;35.90;32.60;;;;;;;16.48;100.00;98688.06;109632;1251;60594;-68
2023/09/12 01:57:20;;;;;;;35.00;31.70;;;;;;;16.47;100.00;98684.78;109554;1251;62548;-68
2023/09/12 01:59:50;;;;;;;;;;;;;;;16.46;100.00;98684.65;109624;1250;59027;-68
2023/09/12 02:02:16;;;;;;;32.60;29.50;;;;;;;16.45;100.00;98684.56;109624;1251;58874;-68
2023/09/12 02:04:58;;;;;;;34.90;31.80;;;;;;;16.45;100.00;98682.38;109605;1251;66129;-68
2023/09/12 02:07:26;;;;;;;36.10;32.80;;;;;;;16.46;100.00;98682.46;109265;1251;61318;-68
2023/09/12 02:09:53;;;;;;;34.40;31.40;;;;;;;16.47;100.00;98680.08;109607;1251;62830;-68
2023/09/12 02:12:19;;;;;;;36.30;32.80;;;;;;;16.47;100.00;98679.54;109554;1251;59039;-68
2023/09/12 02:14:46;;;;;;;34.00;30.80;;;;;;;16.45;100.00;98673.05;109626;1250;58960;-68
2023/09/12 02:17:12;;;;;;;34.50;31.50;;;;;;;16.43;100.00;98668.12;109637;1250;59611;-68
2023/09/12 02:19:39;;;;;;;38.30;34.70;;;;;;;16.41;100.00;98672.80;109624;1251;58984;-68
2023/09/12 02:22:05;;;;;;;35.80;32.50;;;;;;;16.39;100.00;98673.27;109622;1250;59208;-68
2023/09/12 02:24:34;;;;;;;36.10;32.60;;;;;;;16.38;100.00;98675.36;109608;1251;59114;-68
2023/09/12 02:27:01;;;;;;;38.90;35.10;;;;;;;16.38;100.00;98676.67;109605;1251;58976;-68
2023/09/12 02:29:27;;;;;;;38.00;34.30;;;;;;;16.36;100.00;98676.27;109598;1251;64860;-68
2023/09/12 02:31:56;;;;;;;40.10;36.30;;;;;;;16.36;100.00;98678.48;109412;1251;60284;-68
2023/09/12 02:34:22;;;;;;;41.60;37.80;;;;;;;16.35;100.00;98679.09;109568;1251;65020;-68
2023/09/12 02:36:49;;;;;;;40.90;37.10;;;;;;;16.34;100.00;98682.07;109258;1251;59153;-68
2023/09/12 02:39:15;;;;;;;40.10;36.20;;;;;;;16.32;100.00;98682.83;109594;1250;59075;-68
2023/09/12 02:41:42;;;;;;;39.20;35.40;;;;;;;16.30;100.00;98684.61;109588;1251;65716;-68
2023/09/12 02:44:08;;;;;;;42.30;38.10;;;;;;;16.29;100.00;98683.80;109593;1251;60714;-68
2023/09/12 02:46:36;;;;;;;42.00;38.00;;;;;;;16.29;100.00;98688.34;109668;1251;64099;-68
2023/09/12 02:49:03;;;;;;;41.80;37.80;;;;;;;16.28;100.00;98686.02;109544;1251;58962;-68
2023/09/12 02:51:30;;;;;;;40.30;36.50;;;;;;;16.28;100.00;98684.80;109278;1251;59365;-67
2023/09/12 02:53:56;;;;;;;40.40;36.30;;;;;;;16.27;100.00;98681.35;109586;1251;64852;-68
2023/09/12 02:56:23;;;;;;;37.60;34.10;;;;;;;16.26;100.00;98685.00;109593;1250;60038;-67
2023/09/12 02:58:49;;;;;;;38.40;34.80;;;;;;;16.23;100.00;98687.88;109599;1251;64092;-67
2023/09/12 03:01:18;;;;;;;40.40;36.40;;;;;;;16.22;100.00;98683.23;109591;1251;58948;-68
2023/09/12 03:03:49;;;;;;;40.00;36.10;;;;;;;16.21;100.00;98682.95;109602;1250;59298;-68
2023/09/12 03:06:16;;;;;;;36.70;33.10;;;;;;;16.20;100.00;98684.05;109569;1250;64527;-68
2023/09/12 03:08:43;;;;;;;37.10;33.60;;;;;;;16.17;100.00;98684.55;109565;1251;60334;-68
2023/09/12 03:11:10;;;;;;;34.00;30.80;;;;;;;16.14;100.00;98682.91;109589;1251;63739;-67
2023/09/12 03:13:39;;;;;;;35.30;31.90;;;;;;;16.10;100.00;98688.80;109577;1251;58936;-68
2023/09/12 03:16:10;;;;;;;35.80;32.50;;;;;;;16.06;100.00;98688.31;109595;1251;59012;-67
2023/09/12 03:18:36;;;;;;;33.90;30.80;;;;;;;16.04;100.00;98687.58;109608;1251;64706;-68
2023/09/12 03:21:03;;;;;;;33.60;30.40;;;;;;;16.03;100.00;98689.67;109392;1251;60123;-68
2023/09/12 03:23:29;;;;;;;33.60;30.40;;;;;;;15.99;100.00;98690.73;109644;1251;64078;-68
2023/09/12 03:26:06;;;;;;;33.90;30.80;;;;;;;15.95;100.00;98691.84;109346;1251;59154;-67
2023/09/12 03:28:32;;;;;;;33.80;30.90;;;;;;;15.91;100.00;98687.76;109579;1252;58995;-68
2023/09/12 03:31:13;;;;;;;34.10;30.90;;;;;;;15.87;100.00;98684.56;109277;1251;64848;-68
2023/09/12 03:33:41;;;;;;;35.10;31.80;;;;;;;15.84;100.00;98692.55;109545;1251;59108;-68
2023/09/12 03:36:09;;;;;;;34.80;31.30;;;;;;;15.81;100.00;98694.41;109519;1251;64052;-68
2023/09/12 03:38:36;;;;;;;33.10;30.10;;;;;;;15.78;100.00;98689.99;109569;1251;59026;-68
2023/09/12 03:41:02;;;;;;;30.40;27.60;;;;;;;15.73;100.00;98692.06;109598;1251;59000;-68
2023/09/12 03:43:30;;;;;;;36.10;32.70;;;;;;;15.68;100.00;98696.17;109586;1250;64849;-68
2023/09/12 03:45:56;;;;;;;38.10;34.60;;;;;;;15.64;100.00;98695.95;109594;1251;59330;-68
2023/09/12 03:48:23;;;;;;;37.50;34.00;;;;;;;15.65;100.00;98691.72;109568;1251;62654;-68
2023/09/12 03:50:49;;;;;;;36.20;32.70;;;;;;;15.67;100.00;98690.48;109568;1251;59425;-67
2023/09/12 03:53:16;;;;;;;35.90;32.60;;;;;;;15.68;100.00;98698.13;109614;1256;58941;-68
2023/09/12 03:55:43;;;;;;;36.20;32.80;;;;;;;15.62;100.00;98703.10;109567;1251;67158;-68
2023/09/12 03:58:09;;;;;;;37.60;34.00;;;;;;;15.57;100.00;98700.38;109569;1251;60112;-67
2023/09/12 04:00:36;;;;;;;37.40;33.90;;;;;;;15.55;100.00;98697.27;109568;1251;64039;-68
2023/09/12 04:03:03;;;;;;;36.90;33.50;;;;;;;15.57;100.00;98696.60;109285;1255;59074;-67
2023/09/12 04:05:30;;;;;;;39.00;35.10;;;;;;;15.58;100.00;98694.84;109559;1253;59011;-68
2023/09/12 04:07:56;;;;;;;37.80;34.10;;;;;;;15.61;100.00;98690.34;109565;1250;66018;-68
2023/09/12 04:10:23;;;;;;;38.00;34.50;;;;;;;15.65;100.00;98689.27;109561;1251;59043;-68
2023/09/12 04:12:49;;;;;;;38.20;34.70;;;;;;;15.69;100.00;98689.94;109544;1251;64021;-67
2023/09/12 04:15:16;;;;;;;36.60;33.00;;;;;;;15.71;100.00;98691.04;109554;1251;58963;-68
2023/09/12 04:17:43;;;;;;;36.00;32.70;;;;;;;15.72;100.00;98689.52;109523;1251;59032;-68
2023/09/12 04:20:13;;;;;;;35.50;32.10;;;;;;;15.73;100.00;98692.66;109587;1251;66038;-68
2023/09/12 04:22:42;;;;;;;34.20;30.90;;;;;;;15.73;100.00;98694.41;109188;1251;60255;-69
2023/09/12 04:25:09;;;;;;;36.40;33.00;;;;;;;15.73;100.00;98695.52;109600;1251;63281;-68
2023/09/12 04:27:35;;;;;;;31.80;28.90;;;;;;;15.73;100.00;98698.17;109534;1250;59031;-69
2023/09/12 04:30:02;;;;;;;35.10;31.30;;;;;;;15.71;100.00;98700.92;109603;1251;59031;-68
2023/09/12 04:32:29;;;;;;;38.60;35.00;;;;;;;15.70;100.00;98701.91;109628;1251;65706;-74
2023/09/12 04:34:55;;;;;;;35.40;32.10;;;;;;;15.76;100.00;98703.52;109567;1251;60087;-69
2023/09/12 04:37:22;;;;;;;35.40;32.00;;;;;;;15.82;100.00;98701.00;109599;1251;64119;-68
2023/09/12 04:39:50;;;;;;;36.00;32.50;;;;;;;15.86;100.00;98698.11;109595;1250;59669;-70
2023/09/12 04:42:17;;;;;;;36.10;32.90;;;;;;;15.93;100.00;98698.84;109616;1251;59174;-69
2023/09/12 04:44:43;;;;;;;38.70;35.00;;;;;;;16.10;100.00;98700.33;109613;1251;66111;-69
2023/09/12 04:47:10;;;;;;;38.10;34.50;;;;;;;16.28;100.00;98703.80;109396;1251;59032;-69
2023/09/12 04:49:36;;;;;;;36.80;33.10;;;;;;;16.45;100.00;98704.89;109596;1250;64051;-69
2023/09/12 04:52:03;;;;;;;35.00;31.80;;;;;;;16.63;100.00;98702.45;109608;1251;58995;-69
2023/09/12 04:54:30;;;;;;;32.40;29.20;;;;;;;16.74;100.00;98704.38;109631;1251;59042;-68
2023/09/12 04:56:56;;;;;;;33.50;30.00;;;;;;;16.74;100.00;98704.73;109611;1250;66096;-68
2023/09/12 04:59:23;;;;;;;33.20;30.10;;;;;;;16.75;100.00;98703.82;109588;1251;59027;-70
2023/09/12 05:01:50;;;;;;;35.00;31.60;;;;;;;16.80;100.00;98705.65;109292;1251;64540;-69
2023/09/12 05:04:17;;;;;;;33.00;29.90;;;;;;;17.00;100.00;98706.56;109554;1251;59249;-69
2023/09/12 05:06:44;;;;;;;31.70;28.60;;;;;;;17.35;100.00;98709.58;109615;1251;59025;-73
2023/09/12 05:09:10;;;;;;;30.70;27.90;;;;;;;17.57;100.00;98708.75;109599;1250;58937;-69
2023/09/12 05:11:37;;;;;;;32.10;28.20;;;;;;;17.77;100.00;98712.39;109654;1251;59016;-69
2023/09/12 05:14:04;;;;;;;31.30;28.00;;;;;;;17.94;100.00;98720.95;109617;1251;64033;-69
2023/09/12 05:16:30;;;;;;;30.20;27.40;;;;;;;18.06;100.00;98720.06;109584;1250;59260;-71
2023/09/12 05:18:57;;;;;;;33.40;29.60;;;;;;;18.14;100.00;98713.85;109631;1251;59109;-71
2023/09/12 05:21:23;;;;;;;32.00;29.00;;;;;;;18.24;100.00;98712.27;109641;1251;65881;-69
2023/09/12 05:23:50;;;;;;;35.70;30.20;;;;;;;18.25;100.00;98713.77;109375;1251;59796;-71
2023/09/12 05:26:16;;;;;;;44.90;32.80;;;;;;;18.33;100.00;98715.80;109597;1251;59011;-68
2023/09/12 05:28:43;;;;;;;35.80;30.70;;;;;;;18.45;100.00;98718.04;109582;1251;58983;-69
2023/09/12 05:31:10;;;;;;;33.00;29.40;;;;;;;18.56;100.00;98714.83;109574;1251;59034;-68
2023/09/12 05:33:36;;;;;;;29.50;26.50;;;;;;;18.93;100.00;98712.77;109587;1251;64796;-68
2023/09/12 05:36:03;;;;;;;30.00;26.70;;;;;;;19.34;100.00;98719.02;109617;1251;59088;-67
2023/09/12 05:38:30;;;;;;;28.70;25.80;;;;;;;19.69;100.00;98718.70;109598;1251;62859;-68
2023/09/12 05:40:56;;;;;;;25.60;23.00;;;;;;;19.99;100.00;98721.00;109559;1251;58948;-69
2023/09/12 05:43:23;;;;;;;21.60;19.60;;;;;;;20.30;100.00;98720.59;109605;1251;58974;-69
2023/09/12 05:45:49;;;;;;;22.90;20.80;;;;;;;20.63;100.00;98719.23;109602;1250;66615;-69
2023/09/12 05:48:16;;;;;;;22.10;20.00;;;;;;;20.83;100.00;98721.35;109632;1251;60251;-69
2023/09/12 05:50:44;;;;;;;21.70;19.70;;;;;;;21.05;100.00;98715.23;109610;1251;63714;-69
2023/09/12 05:53:10;;;;;;;20.70;18.90;;;;;;;21.38;100.00;98715.36;109652;1251;59236;-70
2023/09/12 05:55:37;;;;;;;21.40;19.30;;;;;;;21.67;100.00;98718.17;109632;1251;58850;-68
2023/09/12 05:58:05;;;;;;;20.50;18.20;;;;;;;21.95;100.00;98721.18;109668;1250;66049;-69
2023/09/12 06:00:33;;;;;;;19.70;17.70;;;;;;;22.13;100.00;98720.86;109400;1251;59875;-68
2023/09/12 06:02:59;;;;;;;19.50;17.70;;;;;;;22.08;100.00;98728.17;109609;1251;62543;-68
2023/09/12 06:05:26;;;;;;;21.80;19.70;;;;;;;21.96;100.00;98728.70;109618;1251;59002;-69
2023/09/12 06:07:52;;;;;;;21.00;18.90;;;;;;;21.81;100.00;98725.90;109627;1251;58946;-69
2023/09/12 06:10:19;;;;;;;21.70;19.90;;;;;;;21.80;100.00;98725.47;109610;1251;66077;-68
2023/09/12 06:12:45;;;;;;;21.90;19.80;;;;;;;21.99;100.00;98725.72;109630;1251;59012;-70
2023/09/12 06:15:12;;;;;;;20.80;18.90;;;;;;;22.16;100.00;98730.61;109606;1251;63727;-69
2023/09/12 06:17:38;;;;;;;48.70;40.90;;;;;;;22.30;100.00;98734.41;109644;1251;58931;-69
2023/09/12 06:20:06;;;;;;;22.20;20.20;;;;;;;22.41;100.00;98729.35;109627;1250;58959;-69
2023/09/12 06:22:33;;;;;;;18.10;16.60;;;;;;;22.57;100.00;98726.64;109197;1250;64527;-69
2023/09/12 06:25:00;;;;;;;17.70;16.00;;;;;;;22.66;100.00;98725.08;109390;1251;59422;-69
2023/09/12 06:27:27;;;;;;;17.60;16.00;;;;;;;22.63;100.00;98727.52;109509;1251;62538;-69
2023/09/12 06:29:53;;;;;;;17.70;16.00;;;;;;;22.62;100.00;98731.85;109609;1250;59065;-67
2023/09/12 06:32:20;;;;;;;16.00;14.50;;;;;;;22.60;100.00;98733.67;109357;1251;58975;-68
2023/09/12 06:34:47;;;;;;;17.40;15.50;;;;;;;22.63;100.00;98732.27;109656;1250;65703;-69
2023/09/12 06:37:14;;;;;;;17.60;15.50;;;;;;;22.63;100.00;98732.40;109583;1251;60123;-69
2023/09/12 06:39:41;;;;;;;17.60;16.00;;;;;;;22.63;100.00;98730.09;109630;1251;63758;-69
2023/09/12 06:42:09;;;;;;;17.90;16.10;;;;;;;22.65;100.00;98733.85;109305;1251;59280;-69
2023/09/12 06:44:36;;;;;;;17.90;16.30;;;;;;;22.68;100.00;98734.89;109671;1250;59106;-69
2023/09/12 06:47:05;;;;;;;17.90;16.20;;;;;;;22.67;100.00;98735.38;109604;1250;66096;-69
2023/09/12 06:49:32;;;;;;;18.10;16.30;;;;;;;22.64;100.00;98736.55;109409;1251;59492;-69
2023/09/12 06:51:59;;;;;;;17.90;16.10;;;;;;;22.54;100.00;98737.26;109464;1251;187261;-69
2023/09/12 06:54:25;;;;;;;18.00;16.20;;;;;;;22.52;100.00;98740.95;109599;1250;59285;-69
2023/09/12 06:56:52;;;;;;;17.60;15.80;;;;;;;22.58;100.00;98741.39;109607;1250;59038;-69
2023/09/12 06:59:18;;;;;;;16.70;15.10;;;;;;;22.65;100.00;98740.73;109572;1250;59571;-69
2023/09/12 07:01:45;;;;;;;17.70;15.90;;;;;;;22.72;100.00;98743.44;109341;1251;61069;-70
2023/09/12 07:04:11;;;;;;;18.00;16.10;;;;;;;22.77;100.00;98747.70;109617;1250;64146;-68
2023/09/12 07:06:38;;;;;;;17.20;15.40;;;;;;;22.84;100.00;98744.52;109606;1250;58935;-68
2023/09/12 07:09:04;;;;;;;15.80;14.40;;;;;;;22.91;100.00;98742.42;109669;1250;59104;-68
2023/09/12 07:11:31;;;;;;;16.70;15.00;;;;;;;22.96;100.00;98746.69;109626;1250;65719;-68
2023/09/12 07:13:57;;;;;;;17.50;16.00;;;;;;;23.03;100.00;98749.09;109666;1250;59236;-68
2023/09/12 07:16:24;;;;;;;18.80;16.90;;;;;;;23.07;100.00;98748.68;109529;1250;59103;-68
2023/09/12 07:18:50;;;;;;;17.50;15.90;;;;;;;23.13;100.00;98747.21;109606;1250;59024;-68
2023/09/12 07:21:17;;;;;;;17.90;16.10;;;;;;;23.21;100.00;98742.42;109649;1250;58949;-68
2023/09/12 07:23:44;;;;;;;18.50;16.90;;;;;;;23.26;100.00;98746.84;109573;1250;66838;-68
2023/09/12 07:26:14;;;;;;;18.60;16.50;;;;;;;23.31;100.00;98748.57;109631;1250;60102;-68
2023/09/12 07:28:41;;;;;;;18.30;16.50;;;;;;;23.39;100.00;98752.10;109646;1250;64053;-68
2023/09/12 07:31:08;;;;;;;18.10;16.30;;;;;;;23.45;100.00;98746.95;109584;1250;58938;-68
2023/09/12 07:33:34;;;;;;;18.70;16.90;;;;;;;23.53;100.00;98744.52;109631;1251;59474;-68
2023/09/12 07:36:02;;;;;;;17.40;16.00;;;;;;;23.60;100.00;98745.77;109385;1251;66125;-68
2023/09/12 07:38:35;;;;;;;18.70;16.80;;;;;;;23.71;100.00;98745.91;109617;1250;59423;-68
2023/09/12 07:41:02;;;;;;;18.40;16.60;;;;;;;23.82;100.00;98746.33;109592;1250;63784;-68
2023/09/12 07:43:29;;;;;;;17.70;16.00;;;;;;;23.93;100.00;98746.98;109615;1250;58934;-68
2023/09/12 07:45:57;;;;;;;16.40;14.70;;;;;;;24.01;100.00;98745.34;109614;1250;58961;-69
2023/09/12 07:48:23;;;;;;;16.50;14.90;;;;;;;24.06;100.00;98740.58;109570;1250;65714;-68
2023/09/12 07:50:51;;;;;;;15.70;14.50;;;;;;;24.14;100.00;98731.80;109323;1251;60111;-68
2023/09/12 07:53:17;;;;;;;15.90;14.60;;;;;;;24.25;100.00;98728.88;109591;1250;64028;-68
2023/09/12 07:55:47;;;;;;;15.80;14.30;;;;;;;24.36;100.00;98727.58;109638;1250;59200;-70
2023/09/12 07:58:15;;;;;;;16.80;15.30;;;;;;;24.42;100.00;98731.31;109668;1250;59666;-69
2023/09/12 08:00:41;;;;;;;15.30;14.00;;;;;;;24.50;100.00;98733.72;109651;1250;66006;-69
2023/09/12 08:03:08;;;;;;;17.30;15.70;;;;;;;24.61;100.00;98733.61;109424;1251;60118;-69
2023/09/12 08:05:35;;;;;;;16.30;14.80;;;;;;;24.73;100.00;98730.77;109630;1250;64018;-69
2023/09/12 08:08:02;;;;;;;16.50;15.00;;;;;;;24.85;100.00;98730.84;109622;1251;59376;-69
2023/09/12 08:10:29;;;;;;;16.50;15.00;;;;;;;24.92;100.00;98738.04;109642;1250;59079;-70
2023/09/12 08:12:55;;;;;;;16.70;15.20;;;;;;;25.01;100.00;98738.00;109593;1250;66079;-69
2023/09/12 08:15:22;;;;;;;16.40;14.90;;;;;;;25.11;100.00;98738.67;109619;1250;59027;-70
2023/09/12 08:17:51;;;;;;;15.60;14.00;;;;;;;25.21;100.00;98738.09;109570;1250;63704;-70
2023/09/12 08:20:18;;;;;;;;;;;;;;;25.30;100.00;98738.54;109599;1250;59046;-68
2023/09/12 08:22:45;;;;;;;15.10;13.90;;;;;;;25.34;100.00;98739.10;109299;1251;59064;-68
2023/09/12 08:25:12;;;;;;;15.90;14.40;;;;;;;25.42;100.00;98742.75;109624;1250;59018;-68
2023/09/12 08:27:39;;;;;;;15.60;14.20;;;;;;;25.50;100.00;98744.04;109295;1251;59042;-67
2023/09/12 08:30:06;;;;;;;15.40;13.90;;;;;;;25.55;100.00;98742.08;109567;1251;59126;-68
2023/09/12 08:32:32;;;;;;;14.70;13.20;;;;;;;25.63;100.00;98743.07;109587;1250;59021;-68
2023/09/12 08:34:59;;;;;;;14.80;12.60;;;;;;;25.74;100.00;98742.30;109632;1250;58978;-68
2023/09/12 08:37:26;;;;;;;13.20;12.00;;;;;;;25.84;100.00;98743.67;109590;1250;65760;-68
2023/09/12 08:39:56;;;;;;;15.30;13.80;;;;;;;25.92;100.00;98737.53;109626;1250;60132;-68
2023/09/12 08:42:24;;;;;;;14.70;13.20;;;;;;;26.01;100.00;98737.46;109599;1250;64060;-68
2023/09/12 08:44:50;;;;;;;14.30;13.00;;;;;;;26.09;100.00;98739.60;109610;1250;58961;-68
2023/09/12 08:47:21;;;;;;;12.50;11.50;;;;;;;26.16;100.00;98736.67;109680;1250;58972;-69
2023/09/12 08:49:47;;;;;;;13.50;12.30;;;;;;;26.23;100.00;98734.23;109649;1250;65786;-69
2023/09/12 08:52:14;;;;;;;14.10;13.00;;;;;;;26.31;100.00;98736.08;109294;1251;60148;-68
2023/09/12 08:54:41;;;;;;;14.00;12.80;;;;;;;26.41;100.00;98737.75;109720;1250;64035;-69
2023/09/12 08:57:09;;;;;;;12.70;11.60;;;;;;;26.52;100.00;98737.90;109589;1250;58963;-70
2023/09/12 08:59:37;;;;;;;12.50;11.20;;;;;;;26.59;100.00;98738.66;109673;1250;58954;-70
2023/09/12 09:02:07;;;;;;;11.90;10.80;;;;;;;26.63;100.00;98737.35;109648;1250;67200;-68
2023/09/12 09:04:34;;;;;;;12.20;11.00;;;;;;;26.69;100.00;98730.70;109339;1251;59302;-68
2023/09/12 09:07:03;;;;;;;12.30;11.00;;;;;;;26.76;100.00;98730.46;109648;1250;64040;-68
2023/09/12 09:09:31;;;;;;;13.30;12.00;;;;;;;26.82;100.00;98729.61;109610;1251;58979;-68
2023/09/12 09:11:57;;;;;;;13.60;12.30;;;;;;;26.89;100.00;98731.92;109649;1250;58885;-68
2023/09/12 09:14:24;;;;;;;13.30;12.10;;;;;;;26.97;100.00;98731.17;109625;1250;58958;-68
2023/09/12 09:16:50;;;;;;;13.10;11.80;;;;;;;27.07;100.00;98728.45;109644;1250;60235;-68
2023/09/12 09:19:18;;;;;;;14.60;13.10;;;;;;;27.16;100.00;98727.55;109605;1251;62830;-68
2023/09/12 09:21:45;;;;;;;12.30;11.40;;;;;;;27.21;100.00;98727.29;109602;1250;59098;-68
2023/09/12 09:24:15;;;;;;;13.40;12.20;;;;;;;27.26;100.00;98725.26;109668;1250;59040;-69
2023/09/12 09:26:46;;;;;;;13.30;12.10;;;;;;;27.32;100.00;98722.30;109675;1250;64802;-68
2023/09/12 09:29:20;;;;;;;12.40;11.30;;;;;;;27.37;100.00;98723.34;109598;1250;61148;-68
2023/09/12 09:31:49;;;;;;;13.00;11.70;;;;;;;27.38;100.00;98720.14;109443;1251;63831;-69
2023/09/12 09:34:18;;;;;;;13.80;11.40;;;;;;;27.46;100.00;98719.77;109613;1250;58958;-69
2023/09/12 09:36:48;;;;;;;10.60;9.70;;;;;;;27.56;100.00;98721.20;109605;1250;59017;-68
2023/09/12 09:39:16;;;;;;;10.70;9.60;;;;;;;27.66;100.00;98720.54;109676;1250;64821;-69
2023/09/12 09:41:47;;;;;;;10.70;9.70;;;;;;;27.69;100.00;98718.11;109629;1250;60175;-68
2023/09/12 09:44:14;;;;;;;10.80;9.80;;;;;;;27.75;100.00;98715.04;109642;1250;63897;-68
2023/09/12 09:46:45;;;;;;;11.60;10.60;;;;;;;27.78;100.00;98716.00;109615;1250;58954;-68
2023/09/12 09:49:15;;;;;;;11.00;9.90;;;;;;;27.86;100.00;98716.21;109619;1250;58994;-68
2023/09/12 09:51:45;;;;;;;10.40;9.60;;;;;;;27.95;100.00;98714.56;109622;1250;66127;-69
2023/09/12 09:54:12;;;;;;;11.20;10.10;;;;;;;28.02;100.00;98713.66;109348;1251;60132;-68
2023/09/12 09:56:50;;;;;;;11.70;10.50;;;;;;;28.05;100.00;98716.00;109342;1251;64053;-68
2023/09/12 09:59:19;;;;;;;11.40;10.20;;;;;;;28.07;100.00;98711.10;109647;1250;58990;-69
2023/09/12 10:01:47;;;;;;;11.00;9.90;;;;;;;28.15;100.00;98708.39;109607;1250;58921;-68
2023/09/12 10:04:15;;;;;;;11.10;10.10;;;;;;;28.25;100.00;98707.20;109630;1250;64810;-68
2023/09/12 10:06:46;;;;;;;13.10;10.00;;;;;;;28.32;100.00;98707.66;109690;1250;58952;-69
2023/09/12 10:09:14;;;;;;;11.50;10.40;;;;;;;28.38;100.00;98705.19;109617;1250;64315;-69
2023/09/12 10:11:42;;;;;;;11.60;10.50;;;;;;;28.49;100.00;98706.77;109605;1250;59023;-69
2023/09/12 10:14:11;;;;;;;9.70;8.70;;;;;;;28.59;100.00;98702.61;109629;1250;58866;-69
2023/09/12 10:17:01;;;;;;;9.50;8.50;;;;;;;28.66;100.00;98699.67;109636;1250;64889;-69
2023/09/12 10:19:54;;;;;;;9.50;8.70;;;;;;;28.76;100.00;98697.13;109648;1250;58993;-69
2023/09/12 10:22:27;;;;;;;9.80;8.80;;;;;;;28.85;100.00;98699.89;108892;1259;64188;-69
2023/09/12 10:24:56;;;;;;;11.80;8.70;;;;;;;28.87;100.00;98694.84;108959;1259;59020;-69
2023/09/12 10:27:25;;;;;;;8.90;7.60;;;;;;;28.88;100.00;98697.63;108955;1261;59119;-69
2023/09/12 10:29:53;;;;;;;9.60;8.60;;;;;;;28.89;100.00;98699.08;108914;1259;65994;-69
2023/09/12 10:32:21;;;;;;;8.50;7.80;;;;;;;28.93;100.00;98694.09;108940;1259;60032;-69
2023/09/12 10:34:49;;;;;;;9.10;8.20;;;;;;;28.94;100.00;98685.11;108928;1259;64124;-69
2023/09/12 10:37:16;;;;;;;9.10;8.10;;;;;;;28.94;100.00;98684.38;108914;1259;59154;-69
2023/09/12 10:39:44;;;;;;;7.90;7.00;;;;;;;28.97;100.00;98680.75;108971;1259;59178;-69
2023/09/12 10:42:12;;;;;;;8.00;7.30;;;;;;;29.02;100.00;98680.52;108972;1259;64842;-69
2023/09/12 10:44:39;;;;;;;8.90;7.10;;;;;;;29.04;100.00;98684.20;109000;1259;59053;-69
2023/09/12 10:47:06;;;;;;;7.70;7.00;;;;;;;29.10;100.00;98685.40;108935;1259;64055;-69
2023/09/12 10:49:33;;;;;;;8.30;7.50;;;;;;;29.14;100.00;98682.77;108927;1259;59119;-69
2023/09/12 10:51:59;;;;;;;8.70;7.90;;;;;;;29.11;100.00;98680.33;108942;1260;59004;-69
2023/09/12 10:54:37;;;;;;;9.60;8.60;;;;;;;29.08;100.00;98677.33;108967;1259;66024;-69
2023/09/12 10:57:04;;;;;;;13.40;8.50;;;;;;;29.18;100.00;98677.70;108988;1259;60154;-69
2023/09/12 10:59:36;;;;;;;10.20;9.10;;;;;;;29.30;100.00;98676.41;109312;1250;62865;-69
2023/09/12 11:02:29;;;;;;;10.00;8.50;;;;;;;29.34;100.00;98677.41;109332;1251;59260;-69
2023/09/12 11:05:00;;;;;;;9.80;8.80;;;;;;;29.40;100.00;98677.41;109555;1251;59010;-69
2023/09/12 11:07:44;;;;;;;10.40;9.40;;;;;;;29.43;100.00;98680.45;109616;1250;64911;-69